createdAt,value
2018-12-19T00:02:13.383Z,9.63
2018-12-19T00:04:43.439Z,9.10
2018-12-19T00:07:13.405Z,11.80
2018-12-19T00:09:43.391Z,10.53
2018-12-19T00:12:13.338Z,12.85
2018-12-19T00:14:43.467Z,11.03
2018-12-19T00:17:16.265Z,10.05
2018-12-19T00:19:45.751Z,12.43
2018-12-19T00:22:15.080Z,9.37
2018-12-19T00:24:44.363Z,11.77
2018-12-19T00:27:13.855Z,10.80
2018-12-19T00:29:43.860Z,9.93
2018-12-19T00:32:13.923Z,11.68
2018-12-19T00:34:43.909Z,10.70
2018-12-19T00:37:13.860Z,8.53
2018-12-19T00:39:43.107Z,8.90
2018-12-19T00:42:12.457Z,12.53
2018-12-19T00:44:41.948Z,10.70
2018-12-19T00:47:11.433Z,11.07
2018-12-19T00:49:40.710Z,10.37
2018-12-19T00:52:09.967Z,14.07
2018-12-19T00:54:39.279Z,11.20
2018-12-19T00:57:08.585Z,12.33
2018-12-19T00:59:37.933Z,10.98
2018-12-19T01:02:07.182Z,12.30
2018-12-19T01:04:36.474Z,12.07
2018-12-19T01:07:05.780Z,13.23
2018-12-19T01:09:35.057Z,10.20
2018-12-19T01:12:04.378Z,12.10
2018-12-19T01:14:33.645Z,8.53
2018-12-19T01:17:02.941Z,11.38
2018-12-19T01:19:32.225Z,12.83
2018-12-19T01:22:01.531Z,10.00
2018-12-19T01:24:30.769Z,12.60
2018-12-19T01:27:00.075Z,10.20
2018-12-19T01:29:29.351Z,10.73
2018-12-19T01:31:58.650Z,14.00
2018-12-19T01:34:27.980Z,15.20
2018-12-19T01:36:57.330Z,11.47
2018-12-19T01:39:26.596Z,12.10
2018-12-19T01:41:55.868Z,14.07
2018-12-19T01:44:25.165Z,15.00
2018-12-19T01:46:54.419Z,13.83
2018-12-19T01:49:23.722Z,15.30
2018-12-19T01:51:52.981Z,14.83
2018-12-19T01:54:22.402Z,16.85
2018-12-19T01:56:51.676Z,17.80
2018-12-19T01:59:21.018Z,13.77
2018-12-19T02:01:50.340Z,14.93
2018-12-19T02:04:19.650Z,13.18
2018-12-19T02:06:48.915Z,17.80
2018-12-19T02:09:18.221Z,18.20
2018-12-19T02:11:47.522Z,15.90
2018-12-19T02:14:16.783Z,15.50
2018-12-19T02:16:46.350Z,15.18
2018-12-19T02:19:16.225Z,13.40
2018-12-19T02:21:46.351Z,12.15
2018-12-19T02:24:16.645Z,15.83
2018-12-19T02:26:46.435Z,14.47
2018-12-19T02:29:16.476Z,16.52
2018-12-19T02:31:46.467Z,13.78
2018-12-19T02:34:16.620Z,17.27
2018-12-19T02:36:46.699Z,19.45
2018-12-19T02:39:16.804Z,17.82
2018-12-19T02:41:46.716Z,16.12
2018-12-19T02:44:16.726Z,15.38
2018-12-19T02:46:46.855Z,13.98
2018-12-19T02:49:17.246Z,17.17
2018-12-19T02:51:47.378Z,15.60
2018-12-19T02:54:17.179Z,16.10
2018-12-19T02:56:47.423Z,14.18
2018-12-19T02:59:17.254Z,16.40
2018-12-19T03:01:47.273Z,13.48
2018-12-19T03:04:16.589Z,15.30
2018-12-19T03:06:45.862Z,17.33
2018-12-19T03:09:15.163Z,15.40
2018-12-19T03:11:44.461Z,13.70
2018-12-19T03:14:13.753Z,12.00
2018-12-19T03:16:43.059Z,14.20
2018-12-19T03:19:12.456Z,12.93
2018-12-19T03:21:41.718Z,13.10
2018-12-19T03:24:10.993Z,14.10
2018-12-19T03:26:40.278Z,12.27
2018-12-19T03:29:09.527Z,11.00
2018-12-19T03:31:38.865Z,12.37
2018-12-19T03:34:08.343Z,11.00
2018-12-19T03:36:37.750Z,11.67
2018-12-19T03:39:08.424Z,13.50
2018-12-19T03:41:37.750Z,15.87
2018-12-19T03:44:07.160Z,11.60
2018-12-19T03:46:36.568Z,12.03
2018-12-19T03:49:05.838Z,15.30
2018-12-19T03:51:35.184Z,12.43
2018-12-19T03:54:04.557Z,14.00
2018-12-19T03:56:33.821Z,14.37
2018-12-19T03:59:03.136Z,12.57
2018-12-19T04:01:32.442Z,11.45
2018-12-19T04:04:01.802Z,13.03
2018-12-19T04:06:31.100Z,13.07
2018-12-19T04:09:00.359Z,12.17
2018-12-19T04:11:29.690Z,12.47
2018-12-19T04:13:59.012Z,12.63
2018-12-19T04:16:28.396Z,10.97
2018-12-19T04:18:57.753Z,14.10
2018-12-19T04:21:27.081Z,14.57
2018-12-19T04:23:56.332Z,13.97
2018-12-19T04:26:25.647Z,14.37
2018-12-19T04:28:54.957Z,14.70
2018-12-19T04:31:24.264Z,14.93
2018-12-19T04:33:53.578Z,14.50
2018-12-19T04:36:22.961Z,14.10
2018-12-19T04:38:52.239Z,12.23
2018-12-19T04:41:21.645Z,12.77
2018-12-19T04:43:51.009Z,11.63
2018-12-19T04:46:20.255Z,15.20
2018-12-19T04:48:50.374Z,14.98
2018-12-19T04:51:20.453Z,14.53
2018-12-19T04:53:50.352Z,13.25
2018-12-19T04:56:20.478Z,11.75
2018-12-19T04:58:50.430Z,13.50
2018-12-19T05:01:20.875Z,10.40
2018-12-19T05:03:50.951Z,14.25
2018-12-19T05:06:20.999Z,12.82
2018-12-19T05:08:51.024Z,13.43
2018-12-19T05:11:21.025Z,13.03
2018-12-19T05:13:50.968Z,10.13
2018-12-19T05:16:20.222Z,12.37
2018-12-19T05:18:49.547Z,12.40
2018-12-19T05:21:18.833Z,10.70
2018-12-19T05:23:48.234Z,12.10
2018-12-19T05:26:17.496Z,12.23
2018-12-19T05:28:46.829Z,14.43
2018-12-19T05:31:16.141Z,12.00
2018-12-19T05:33:45.457Z,14.20
2018-12-19T05:36:14.729Z,11.87
2018-12-19T05:38:44.025Z,11.97
2018-12-19T05:41:13.311Z,13.40
2018-12-19T05:43:42.623Z,13.90
2018-12-19T05:46:11.937Z,13.40
2018-12-19T05:48:41.212Z,14.63
2018-12-19T05:51:10.503Z,14.60
2018-12-19T05:53:39.786Z,12.43
2018-12-19T05:56:09.102Z,12.33
2018-12-19T05:58:38.358Z,14.60
2018-12-19T06:01:07.877Z,12.50
2018-12-19T06:03:37.154Z,11.33
2018-12-19T06:06:06.429Z,12.90
2018-12-19T06:08:35.768Z,12.83
2018-12-19T06:11:05.100Z,11.22
2018-12-19T06:13:34.349Z,11.73
2018-12-19T06:16:03.660Z,10.30
2018-12-19T06:18:32.965Z,10.97
2018-12-19T06:21:03.568Z,12.93
2018-12-19T06:23:32.874Z,13.23
2018-12-19T06:26:02.149Z,13.73
2018-12-19T06:28:31.424Z,13.07
2018-12-19T06:31:00.866Z,11.53
2018-12-19T06:33:30.114Z,14.03
2018-12-19T06:35:59.595Z,14.07
2018-12-19T06:38:28.851Z,12.43
2018-12-19T06:40:58.105Z,14.03
2018-12-19T06:43:27.353Z,12.60
2018-12-19T06:45:56.721Z,10.80
2018-12-19T06:48:26.000Z,12.63
2018-12-19T06:50:55.256Z,14.93
2018-12-19T06:53:24.692Z,14.13
2018-12-19T06:55:54.126Z,12.05
2018-12-19T06:58:24.232Z,12.37
2018-12-19T07:00:54.425Z,11.48
2018-12-19T07:03:24.372Z,13.20
2018-12-19T07:05:54.362Z,13.10
2018-12-19T07:08:24.357Z,11.75
2018-12-19T07:10:55.827Z,12.47
2018-12-19T07:13:25.470Z,12.57
2018-12-19T07:15:55.543Z,15.13
2018-12-19T07:18:25.206Z,12.88
2018-12-19T07:20:55.298Z,14.47
2018-12-19T07:23:25.265Z,14.43
2018-12-19T07:25:55.349Z,12.95
2018-12-19T07:28:24.677Z,14.97
2018-12-19T07:30:53.915Z,13.13
2018-12-19T07:33:23.198Z,13.80
2018-12-19T07:35:52.437Z,13.53
2018-12-19T07:38:21.765Z,16.70
2018-12-19T07:40:51.038Z,13.95
2018-12-19T07:43:20.349Z,12.43
2018-12-19T07:45:49.653Z,15.13
2018-12-19T07:48:19.200Z,12.37
2018-12-19T07:50:48.626Z,17.87
2018-12-19T07:53:17.905Z,15.53
2018-12-19T07:55:47.403Z,14.57
2018-12-19T07:58:16.766Z,13.67
2018-12-19T08:00:46.131Z,16.50
2018-12-19T08:03:15.459Z,13.93
2018-12-19T08:05:44.715Z,16.90
2018-12-19T08:08:14.018Z,14.57
2018-12-19T08:10:43.315Z,14.10
2018-12-19T08:13:12.616Z,17.33
2018-12-19T08:15:41.833Z,13.60
2018-12-19T08:18:17.737Z,14.80
2018-12-19T08:20:47.020Z,17.17
2018-12-19T08:23:16.342Z,17.73
2018-12-19T08:25:45.659Z,14.80
2018-12-19T08:28:14.973Z,18.57
2018-12-19T08:30:44.283Z,16.70
2018-12-19T08:33:13.503Z,16.07
2018-12-19T08:35:42.922Z,15.20
2018-12-19T08:38:12.174Z,15.43
2018-12-19T08:40:41.455Z,15.20
2018-12-19T08:43:10.792Z,17.03
2018-12-19T08:45:40.680Z,17.10
2018-12-19T08:48:10.000Z,14.83
2018-12-19T08:50:39.297Z,14.23
2018-12-19T08:53:08.554Z,15.95
2018-12-19T08:55:38.745Z,14.83
2018-12-19T08:58:08.104Z,17.07
2018-12-19T09:00:37.419Z,14.80
2018-12-19T09:03:06.862Z,16.33
2018-12-19T09:05:36.130Z,19.70
2018-12-19T09:08:05.533Z,16.05
2018-12-19T09:10:34.950Z,16.83
2018-12-19T09:13:04.293Z,15.87
2018-12-19T09:16:04.062Z,15.00
2018-12-19T09:18:33.369Z,17.07
2018-12-19T09:21:02.679Z,15.97
2018-12-19T09:23:32.177Z,16.73
2018-12-19T09:26:01.968Z,16.20
2018-12-19T09:28:31.280Z,16.13
2018-12-19T09:31:00.607Z,17.43
2018-12-19T09:33:29.957Z,15.37
2018-12-19T09:35:59.306Z,16.57
2018-12-19T09:38:28.643Z,15.53
2018-12-19T09:40:57.960Z,15.47
2018-12-19T09:43:27.263Z,19.20
2018-12-19T09:45:58.794Z,18.35
2018-12-19T09:48:28.200Z,17.27
2018-12-19T09:50:57.526Z,17.50
2018-12-19T09:53:27.228Z,19.90
2018-12-19T09:55:56.455Z,19.70
2018-12-19T09:58:25.799Z,19.20
2018-12-19T10:00:55.128Z,19.17
2018-12-19T10:03:24.374Z,17.90
2018-12-19T10:05:53.727Z,17.15
2018-12-19T10:08:23.002Z,20.37
2018-12-19T10:10:52.308Z,19.40
2018-12-19T10:13:21.727Z,20.10
2018-12-19T10:15:51.168Z,21.03
2018-12-19T10:18:20.470Z,18.70
2018-12-19T10:20:49.803Z,18.60
2018-12-19T10:23:19.084Z,18.03
2018-12-19T10:25:52.503Z,17.83
2018-12-19T10:28:27.026Z,20.45
2018-12-19T10:30:56.336Z,18.90
2018-12-19T10:33:25.650Z,20.53
2018-12-19T10:35:54.924Z,19.85
2018-12-19T10:38:30.917Z,21.23
2018-12-19T10:41:00.176Z,20.08
2018-12-19T10:43:29.537Z,19.57
2018-12-19T10:45:58.852Z,19.13
2018-12-19T10:48:28.155Z,20.57
2018-12-19T10:50:57.466Z,19.52
2018-12-19T10:53:26.771Z,23.43
2018-12-19T10:55:56.043Z,24.03
2018-12-19T10:58:25.441Z,23.37
2018-12-19T11:01:01.467Z,23.60
2018-12-19T11:03:30.994Z,18.93
2018-12-19T11:06:00.347Z,20.53
2018-12-19T11:08:29.637Z,20.63
2018-12-19T11:10:58.987Z,20.03
2018-12-19T11:13:28.301Z,22.80
2018-12-19T11:15:57.605Z,20.87
2018-12-19T11:18:26.877Z,21.97
2018-12-19T11:20:56.395Z,23.47
2018-12-19T11:23:25.683Z,23.27
2018-12-19T11:25:54.909Z,18.47
2018-12-19T11:28:24.248Z,23.62
2018-12-19T11:30:53.648Z,20.60
2018-12-19T11:33:22.930Z,21.15
2018-12-19T11:35:52.235Z,20.73
2018-12-19T11:38:21.569Z,21.30
2018-12-19T11:40:50.844Z,22.97
2018-12-19T11:43:20.121Z,23.23
2018-12-19T11:45:49.548Z,22.40
2018-12-19T11:48:18.834Z,20.73
2018-12-19T11:50:48.141Z,24.37
2018-12-19T11:53:17.433Z,21.87
2018-12-19T11:55:46.938Z,23.20
2018-12-19T11:58:16.235Z,22.22
2018-12-19T12:00:52.393Z,21.97
2018-12-19T12:03:21.659Z,22.77
2018-12-19T12:05:51.056Z,22.63
2018-12-19T12:08:20.362Z,22.98
2018-12-19T12:10:49.653Z,23.87
2018-12-19T12:13:19.036Z,23.37
2018-12-19T12:15:48.351Z,28.00
2018-12-19T12:18:17.794Z,25.70
2018-12-19T12:20:47.070Z,27.77
2018-12-19T12:23:16.418Z,24.83
2018-12-19T12:25:45.697Z,26.03
2018-12-19T12:28:14.936Z,31.23
2018-12-19T12:30:44.384Z,27.60
2018-12-19T12:33:13.698Z,28.83
2018-12-19T12:35:43.619Z,34.97
2018-12-19T12:38:12.895Z,26.93
2018-12-19T12:40:42.261Z,29.80
2018-12-19T12:43:11.679Z,29.30
2018-12-19T12:45:41.044Z,30.43
2018-12-19T12:48:10.583Z,35.92
2018-12-19T12:50:40.651Z,40.10
2018-12-19T12:53:11.096Z,39.83
2018-12-19T12:55:40.536Z,35.25
2018-12-19T12:58:10.647Z,33.98
2018-12-19T13:00:40.886Z,37.15
2018-12-19T13:03:10.195Z,34.93
2018-12-19T13:05:39.525Z,35.52
2018-12-19T13:08:08.856Z,33.57
2018-12-19T13:10:38.211Z,30.73
2018-12-19T13:13:07.490Z,30.80
2018-12-19T13:15:43.980Z,33.17
2018-12-19T13:18:14.647Z,29.87
2018-12-19T13:20:44.279Z,34.73
2018-12-19T13:23:13.661Z,32.70
2018-12-19T13:25:43.024Z,32.20
2018-12-19T13:28:12.331Z,31.40
2018-12-19T13:30:42.204Z,32.35
2018-12-19T13:33:12.218Z,29.77
2018-12-19T13:35:42.311Z,30.52
2018-12-19T13:38:12.244Z,27.42
2018-12-19T13:40:42.314Z,31.90
2018-12-19T13:43:12.733Z,31.03
2018-12-19T13:45:42.881Z,29.87
2018-12-19T13:48:12.770Z,29.60
2018-12-19T13:50:44.185Z,36.03
2018-12-19T13:53:13.419Z,36.90
2018-12-19T13:55:42.811Z,29.85
2018-12-19T13:58:12.136Z,33.03
2018-12-19T14:00:41.421Z,37.27
2018-12-19T14:03:10.735Z,34.27
2018-12-19T14:05:39.993Z,33.18
2018-12-19T14:08:09.339Z,30.60
2018-12-19T14:10:38.563Z,44.03
2018-12-19T14:13:07.842Z,36.70
2018-12-19T14:15:37.205Z,36.90
2018-12-19T14:18:06.489Z,39.17
2018-12-19T14:20:35.698Z,39.37
2018-12-19T14:23:04.995Z,35.70
2018-12-19T14:25:34.203Z,30.10
2018-12-19T14:28:03.471Z,31.57
2018-12-19T14:30:32.712Z,33.60
2018-12-19T14:33:02.056Z,34.67
2018-12-19T14:35:31.339Z,38.38
2018-12-19T14:38:00.598Z,36.37
2018-12-19T14:40:29.993Z,33.75
2018-12-19T14:42:59.208Z,34.03
2018-12-19T14:45:28.715Z,35.87
2018-12-19T14:47:58.021Z,39.07
2018-12-19T14:50:27.283Z,35.15
2018-12-19T14:52:56.573Z,32.37
2018-12-19T14:55:25.814Z,37.60
2018-12-19T14:57:55.093Z,39.53
2018-12-19T15:00:24.379Z,34.50
2018-12-19T15:02:53.672Z,35.63
2018-12-19T15:05:22.955Z,34.43
2018-12-19T15:07:52.345Z,36.80
2018-12-19T15:10:21.714Z,35.87
2018-12-19T15:12:50.937Z,36.90
2018-12-19T15:15:20.246Z,36.28
2018-12-19T15:17:49.450Z,38.23
2018-12-19T15:20:18.856Z,36.87
2018-12-19T15:22:48.108Z,34.77
2018-12-19T15:25:17.389Z,36.73
2018-12-19T15:27:46.668Z,32.23
2018-12-19T15:30:16.661Z,36.83
2018-12-19T15:32:46.810Z,33.02
2018-12-19T15:35:16.631Z,35.00
2018-12-19T15:37:46.640Z,35.08
2018-12-19T15:40:16.653Z,35.52
2018-12-19T15:42:46.735Z,36.35
2018-12-19T15:45:16.621Z,33.05
2018-12-19T15:47:47.277Z,32.03
2018-12-19T15:50:16.825Z,30.43
2018-12-19T15:52:46.721Z,32.70
2018-12-19T15:55:16.652Z,38.98
2018-12-19T15:57:46.732Z,34.03
2018-12-19T16:00:17.219Z,36.00
2018-12-19T16:02:46.838Z,32.33
2018-12-19T16:05:16.756Z,32.17
2018-12-19T16:07:46.853Z,28.23
2018-12-19T16:10:16.143Z,29.20
2018-12-19T17:24:42.040Z,44.90
2018-12-19T17:27:11.451Z,39.93
2018-12-19T17:29:40.729Z,34.90
2018-12-19T17:32:10.276Z,31.97
2018-12-19T17:34:39.606Z,32.65
2018-12-19T17:37:08.926Z,30.00
2018-12-19T17:39:38.247Z,30.37
2018-12-19T17:42:07.634Z,29.93
2018-12-19T17:44:36.951Z,29.77
2018-12-19T17:47:06.299Z,32.30
2018-12-19T17:49:35.686Z,28.93
2018-12-19T17:52:05.131Z,31.55
2018-12-19T17:54:34.468Z,30.03
2018-12-19T17:57:03.819Z,31.57
2018-12-19T17:59:33.181Z,31.97
2018-12-19T18:02:02.632Z,29.70
2018-12-19T18:04:31.951Z,28.23
2018-12-19T18:07:01.278Z,30.70
2018-12-19T18:09:30.796Z,31.05
2018-12-19T18:12:00.136Z,36.00
2018-12-19T18:14:29.498Z,29.67
2018-12-19T18:16:58.873Z,28.77
2018-12-19T18:19:28.219Z,30.13
2018-12-19T18:21:57.774Z,31.80
2018-12-19T18:24:27.133Z,31.15
2018-12-19T18:26:56.412Z,31.40
2018-12-19T18:29:25.729Z,32.67
2018-12-19T18:31:55.050Z,29.03
2018-12-19T18:34:24.377Z,29.40
2018-12-19T18:36:53.708Z,29.60
2018-12-19T18:39:26.309Z,32.00
2018-12-19T18:42:01.103Z,31.10
2018-12-19T18:44:30.399Z,28.70
2018-12-19T18:46:59.804Z,27.93
2018-12-19T18:49:29.110Z,26.77
2018-12-19T18:51:58.435Z,29.40
2018-12-19T18:54:27.862Z,29.97
2018-12-19T18:56:57.123Z,29.63
2018-12-19T18:59:26.477Z,28.37
2018-12-19T19:01:55.943Z,29.15
2018-12-19T19:04:25.277Z,27.03
2018-12-19T19:06:54.713Z,29.30
2018-12-19T19:09:24.219Z,30.60
2018-12-19T19:11:54.025Z,31.77
2018-12-19T19:14:24.103Z,26.33
2018-12-19T19:16:54.126Z,27.60
2018-12-19T19:19:24.149Z,31.02
2018-12-19T19:21:54.138Z,29.05
2018-12-19T19:24:24.272Z,29.77
2018-12-19T19:26:54.149Z,28.32
2018-12-19T19:29:24.102Z,29.10
2018-12-19T19:31:54.198Z,29.05
2018-12-19T19:34:25.139Z,28.25
2018-12-19T19:36:54.747Z,28.40
2018-12-19T19:39:24.258Z,27.95
2018-12-19T19:41:54.454Z,25.97
2018-12-19T19:44:24.472Z,28.77
2018-12-19T19:46:54.483Z,26.95
2018-12-19T19:49:24.623Z,27.53
2018-12-19T19:51:54.500Z,27.98
2018-12-19T19:54:24.494Z,25.72
2018-12-19T19:56:54.903Z,26.87
2018-12-19T19:59:25.335Z,26.14
2018-12-19T20:01:55.366Z,25.95
2018-12-19T20:04:25.221Z,27.10
2018-12-19T20:07:00.163Z,33.18
2018-12-19T20:09:26.721Z,33.33
2018-12-19T20:11:58.164Z,33.27
2018-12-19T20:14:29.080Z,26.85
2018-12-19T20:17:02.439Z,24.95
2018-12-19T20:19:31.954Z,27.07
2018-12-19T20:22:01.326Z,26.07
2018-12-19T20:24:36.938Z,25.72
2018-12-19T20:27:06.300Z,24.23
2018-12-19T20:29:35.799Z,25.85
2018-12-19T20:32:05.158Z,26.07
2018-12-19T20:34:34.474Z,25.47
2018-12-19T20:37:04.022Z,24.60
2018-12-19T20:39:33.393Z,24.73
2018-12-19T20:42:02.882Z,23.60
2018-12-19T20:44:32.203Z,24.03
2018-12-19T20:47:01.543Z,26.13
2018-12-19T20:49:30.851Z,27.45
2018-12-19T20:52:00.114Z,25.13
2018-12-19T20:54:29.418Z,28.03
2018-12-19T20:56:58.717Z,25.20
2018-12-19T20:59:28.068Z,25.27
2018-12-19T21:01:57.500Z,25.53
2018-12-19T21:04:26.931Z,26.17
2018-12-19T21:06:56.261Z,24.97
2018-12-19T21:09:26.232Z,24.57
2018-12-19T21:11:56.210Z,23.67
2018-12-19T21:14:26.394Z,24.70
2018-12-19T21:17:01.471Z,27.73
2018-12-19T21:19:30.807Z,24.40
2018-12-19T21:22:00.080Z,23.53
2018-12-19T21:24:29.352Z,25.77
2018-12-19T21:26:58.865Z,24.73
2018-12-19T21:29:28.149Z,26.30
2018-12-19T21:31:57.443Z,26.73
2018-12-19T21:34:26.782Z,25.23
2018-12-19T21:36:56.330Z,24.80
2018-12-19T21:39:26.378Z,23.38
2018-12-19T21:42:00.504Z,26.23
2018-12-19T21:44:34.968Z,24.10
2018-12-19T21:47:04.602Z,23.33
2018-12-19T21:49:34.026Z,27.23
2018-12-19T21:52:03.358Z,24.10
2018-12-19T21:54:32.755Z,23.25
2018-12-19T21:57:02.972Z,26.90
2018-12-19T21:59:32.602Z,23.57
2018-12-19T22:02:02.105Z,24.50
2018-12-19T22:04:31.491Z,22.27
2018-12-19T22:07:00.908Z,24.57
2018-12-19T22:09:30.234Z,24.30
2018-12-19T22:11:59.600Z,24.90
2018-12-19T22:14:28.889Z,23.17
2018-12-19T22:17:03.494Z,23.83
2018-12-19T22:19:32.934Z,23.47
2018-12-19T22:22:02.406Z,26.17
2018-12-19T22:24:31.802Z,24.50
2018-12-19T22:27:01.150Z,28.50
2018-12-19T22:29:30.612Z,25.97
2018-12-19T22:31:59.927Z,26.80
2018-12-19T22:34:29.272Z,23.00
2018-12-19T22:36:58.641Z,23.13
2018-12-19T22:39:27.999Z,24.73
2018-12-19T22:41:57.732Z,22.02
2018-12-19T22:44:27.672Z,23.50
2018-12-19T22:46:57.756Z,23.83
2018-12-19T22:49:27.723Z,24.45
2018-12-19T22:51:57.982Z,25.82
2018-12-19T22:54:27.883Z,26.20
2018-12-19T22:56:57.813Z,28.77
2018-12-19T22:59:27.843Z,25.25
2018-12-19T23:02:03.301Z,26.20
2018-12-19T23:04:32.703Z,26.02
2018-12-19T23:07:02.130Z,26.13
2018-12-19T23:09:31.607Z,26.83
2018-12-19T23:12:00.951Z,24.50
2018-12-19T23:14:30.368Z,25.50
2018-12-19T23:17:02.084Z,26.63
2018-12-19T23:19:31.567Z,25.30
2018-12-19T23:22:00.907Z,26.87
2018-12-19T23:24:30.293Z,24.43
2018-12-19T23:26:59.649Z,26.47
2018-12-19T23:29:29.071Z,25.73
2018-12-19T23:31:58.848Z,24.65
2018-12-19T23:34:29.329Z,24.38
2018-12-19T23:36:59.297Z,24.43
2018-12-19T23:39:29.336Z,25.45
2018-12-19T23:41:59.503Z,27.45
2018-12-19T23:44:32.391Z,27.13
2018-12-19T23:47:02.224Z,24.47
2018-12-19T23:49:31.652Z,24.13
2018-12-19T23:52:01.117Z,26.13
2018-12-19T23:54:30.617Z,25.27
2018-12-19T23:57:00.046Z,26.63
2018-12-19T23:59:29.374Z,28.20
